Time;durP1;ratioP1;P1;durP2;ratioP2;P2;SDS_P1;SDS_P2;PMS_P1;PMS_P2;Temp;Humidity;BMP_temperature;BMP_pressure;BME280_temperature;BME280_humidity;BME280_pressure;Samples;Min_cycle;Max_cycle;Signal;HPM_P1;HPM_P2
2022/03/07 00:01:51;;;;;;;17.35;15.65;;;;;;;;;;5013601;28;20038;-73
2022/03/07 00:04:17;;;;;;;16.80;14.02;;;;;;;;;;5011091;28;20036;-73
2022/03/07 00:06:44;;;;;;;17.67;15.90;;;;;;;;;;5015963;28;20088;-73
2022/03/07 00:09:09;;;;;;;17.95;15.40;;;;;;;;;;5016605;28;20153;-73
2022/03/07 00:11:35;;;;;;;16.73;15.02;;;;;;;;;;5012133;28;20037;-73
2022/03/07 00:14:02;;;;;;;15.93;14.40;;;;;;;;;;5018321;28;20116;-72
2022/03/07 00:16:29;;;;;;;15.90;14.35;;;;;;;;;;5013598;28;20600;-72
2022/03/07 00:18:54;;;;;;;16.67;15.00;;;;;;;;;;5015100;28;20505;-71
2022/03/07 00:21:21;;;;;;;16.27;14.60;;;;;;;;;;5016043;28;20040;-72
2022/03/07 00:23:47;;;;;;;16.98;14.95;;;;;;;;;;5015817;28;20049;-72
2022/03/07 00:26:13;;;;;;;16.15;14.65;;;;;;;;;;5019827;28;20057;-72
2022/03/07 00:28:38;;;;;;;16.38;14.55;;;;;;;;;;5011166;28;20473;-72
2022/03/07 00:31:05;;;;;;;15.38;13.98;;;;;;;;;;5019036;28;20087;-71
2022/03/07 00:33:31;;;;;;;18.85;15.98;;;;;;;;;;4996984;28;20486;-71
2022/03/07 00:35:57;;;;;;;16.50;14.82;;;;;;;;;;4998795;28;20041;-71
2022/03/07 00:38:23;;;;;;;16.70;15.00;;;;;;;;;;5016700;28;20038;-71
2022/03/07 00:40:48;;;;;;;15.60;14.20;;;;;;;;;;5013581;28;20032;-72
2022/03/07 00:43:15;;;;;;;16.48;14.77;;;;;;;;;;5020799;28;20402;-72
2022/03/07 00:45:41;;;;;;;16.00;14.60;;;;;;;;;;5020239;28;20430;-72
2022/03/07 00:48:06;;;;;;;14.98;13.55;;;;;;;;;;5015066;28;20240;-72
2022/03/07 00:50:32;;;;;;;15.55;13.95;;;;;;;;;;5013745;28;20486;-71
2022/03/07 00:52:59;;;;;;;14.80;13.50;;;;;;;;;;5016255;28;20038;-71
2022/03/07 00:55:25;;;;;;;16.45;14.75;;;;;;;;;;4997954;28;20541;-72
2022/03/07 00:57:51;;;;;;;14.77;13.27;;;;;;;;;;5012016;28;20041;-72
2022/03/07 01:00:17;;;;;;;16.55;14.93;;;;;;;;;;5016128;28;20080;-71
2022/03/07 01:02:43;;;;;;;14.18;12.95;;;;;;;;;;5020837;28;20286;-71
2022/03/07 01:05:09;;;;;;;15.52;13.98;;;;;;;;;;5016617;28;20048;-72
2022/03/07 01:07:35;;;;;;;14.68;13.27;;;;;;;;;;5013751;28;20068;-72
2022/03/07 01:10:01;;;;;;;15.18;13.73;;;;;;;;;;5009918;28;20493;-72
2022/03/07 01:12:27;;;;;;;15.20;13.77;;;;;;;;;;5015103;28;20129;-71
2022/03/07 01:14:52;;;;;;;15.32;13.93;;;;;;;;;;5011749;28;20113;-71
2022/03/07 01:17:18;;;;;;;14.68;13.38;;;;;;;;;;5014897;28;20037;-71
2022/03/07 01:19:44;;;;;;;14.35;12.98;;;;;;;;;;5001401;28;20091;-72
2022/03/07 01:22:09;;;;;;;15.75;14.15;;;;;;;;;;4999528;28;20047;-72
2022/03/07 01:24:36;;;;;;;15.07;13.70;;;;;;;;;;5010356;28;20076;-71
2022/03/07 01:27:03;;;;;;;14.73;13.32;;;;;;;;;;5016239;28;20033;-72
2022/03/07 01:29:29;;;;;;;13.63;12.50;;;;;;;;;;5015673;28;20116;-72
2022/03/07 01:31:54;;;;;;;14.65;13.32;;;;;;;;;;5014864;28;20113;-71
2022/03/07 01:34:20;;;;;;;14.35;13.00;;;;;;;;;;5010575;28;20042;-71
2022/03/07 01:36:46;;;;;;;14.85;13.45;;;;;;;;;;4997683;28;20468;-72
2022/03/07 01:39:11;;;;;;;13.82;12.63;;;;;;;;;;5001855;28;20040;-72
2022/03/07 01:41:38;;;;;;;14.55;13.10;;;;;;;;;;4996102;28;20412;-72
2022/03/07 01:44:03;;;;;;;15.43;13.85;;;;;;;;;;5014296;28;20030;-72
2022/03/07 01:46:32;;;;;;;16.05;13.13;;;;;;;;;;5015063;28;20042;-71
2022/03/07 01:48:58;;;;;;;14.50;12.93;;;;;;;;;;5008209;28;20041;-72
2022/03/07 01:51:25;;;;;;;14.23;12.93;;;;;;;;;;5011889;28;20126;-72
2022/03/07 01:53:52;;;;;;;14.65;13.18;;;;;;;;;;5016028;28;20036;-71
2022/03/07 01:56:18;;;;;;;15.30;13.73;;;;;;;;;;5013932;28;20041;-74
2022/03/07 01:58:43;;;;;;;14.38;13.07;;;;;;;;;;5014111;28;20455;-73
2022/03/07 02:01:09;;;;;;;14.50;13.20;;;;;;;;;;4997908;28;20512;-73
2022/03/07 02:03:35;;;;;;;14.50;13.15;;;;;;;;;;4994254;28;20033;-72
2022/03/07 02:06:02;;;;;;;14.48;13.05;;;;;;;;;;4994858;28;20046;-72
2022/03/07 02:08:28;;;;;;;13.95;12.70;;;;;;;;;;4989328;28;20114;-74
2022/03/07 02:11:02;;;;;;;13.90;12.70;;;;;;;;;;4997772;28;20483;-73
2022/03/07 02:13:31;;;;;;;13.30;12.20;;;;;;;;;;5013273;28;20035;-73
2022/03/07 02:16:05;;;;;;;13.85;12.45;;;;;;;;;;5014342;28;20038;-74
2022/03/07 02:18:33;;;;;;;13.10;11.98;;;;;;;;;;4991296;28;20034;-73
2022/03/07 02:21:28;;;;;;;14.48;13.10;;;;;;;;;;5002380;28;20045;-72
2022/03/07 02:24:05;;;;;;;13.93;12.63;;;;;;;;;;4995639;28;20042;-73
2022/03/07 02:26:32;;;;;;;14.30;12.90;;;;;;;;;;4999566;28;20501;-73
2022/03/07 02:28:59;;;;;;;15.35;13.75;;;;;;;;;;5016145;28;20037;-74
2022/03/07 02:31:34;;;;;;;13.60;12.43;;;;;;;;;;4998699;28;20564;-74
2022/03/07 02:34:01;;;;;;;13.65;12.48;;;;;;;;;;5012498;28;20553;-72
2022/03/07 02:36:27;;;;;;;14.05;12.75;;;;;;;;;;5012192;28;20252;-72
2022/03/07 02:38:54;;;;;;;17.80;13.93;;;;;;;;;;5012246;28;20076;-74
2022/03/07 02:41:20;;;;;;;14.48;13.18;;;;;;;;;;5012101;28;20044;-73
2022/03/07 02:43:48;;;;;;;14.35;12.85;;;;;;;;;;5011308;28;20030;-73
2022/03/07 02:46:14;;;;;;;14.80;13.30;;;;;;;;;;4996343;28;20038;-72
2022/03/07 02:48:40;;;;;;;13.52;12.18;;;;;;;;;;5011330;28;20385;-72
2022/03/07 02:51:07;;;;;;;14.75;13.18;;;;;;;;;;4996730;28;20523;-71
2022/03/07 02:53:33;;;;;;;14.50;13.23;;;;;;;;;;5011133;28;20050;-71
2022/03/07 02:55:58;;;;;;;13.88;12.60;;;;;;;;;;5013542;28;20091;-72
2022/03/07 02:58:24;;;;;;;14.77;13.48;;;;;;;;;;5014589;28;20112;-74
2022/03/07 03:00:50;;;;;;;14.13;12.93;;;;;;;;;;5015435;28;20165;-72
2022/03/07 03:03:16;;;;;;;14.18;12.65;;;;;;;;;;5014297;28;20497;-72
2022/03/07 03:05:41;;;;;;;13.10;11.85;;;;;;;;;;5012215;28;20103;-72
2022/03/07 03:08:07;;;;;;;14.32;13.05;;;;;;;;;;5014535;28;20447;-71
2022/03/07 03:10:34;;;;;;;15.50;14.02;;;;;;;;;;5012854;28;20030;-72
2022/03/07 03:12:59;;;;;;;14.23;12.93;;;;;;;;;;5016770;28;20037;-70
2022/03/07 03:15:25;;;;;;;14.27;12.90;;;;;;;;;;5011908;28;20389;-71
2022/03/07 03:17:50;;;;;;;14.13;12.88;;;;;;;;;;5011423;28;20042;-72
2022/03/07 03:20:16;;;;;;;15.52;13.95;;;;;;;;;;5018533;28;20037;-72
2022/03/07 03:22:44;;;;;;;14.68;13.25;;;;;;;;;;5020795;28;20087;-72
2022/03/07 03:25:12;;;;;;;15.48;13.93;;;;;;;;;;5014134;28;20139;-72
2022/03/07 03:27:38;;;;;;;14.95;13.35;;;;;;;;;;5013877;28;20256;-72
2022/03/07 03:30:06;;;;;;;14.05;12.73;;;;;;;;;;5006279;28;20033;-71
2022/03/07 03:32:32;;;;;;;14.48;12.93;;;;;;;;;;5000708;28;20034;-73
2022/03/07 03:34:58;;;;;;;14.48;13.27;;;;;;;;;;5002615;28;20038;-73
2022/03/07 03:37:26;;;;;;;14.52;13.23;;;;;;;;;;5005686;28;20030;-72
2022/03/07 03:39:53;;;;;;;16.73;14.05;;;;;;;;;;4997934;28;20037;-71
2022/03/07 03:42:19;;;;;;;14.93;13.57;;;;;;;;;;5017619;28;20049;-72
2022/03/07 03:44:45;;;;;;;15.68;14.20;;;;;;;;;;5001921;28;20460;-72
2022/03/07 03:47:10;;;;;;;15.40;13.88;;;;;;;;;;5000156;28;20486;-72
2022/03/07 03:49:36;;;;;;;14.93;13.50;;;;;;;;;;5008585;28;20124;-74
2022/03/07 03:52:03;;;;;;;14.55;13.15;;;;;;;;;;5004581;28;20089;-73
2022/03/07 03:54:29;;;;;;;15.20;13.80;;;;;;;;;;5003537;28;20037;-73
2022/03/07 03:56:54;;;;;;;15.73;14.23;;;;;;;;;;5004055;28;20519;-73
2022/03/07 03:59:20;;;;;;;16.70;15.15;;;;;;;;;;5007577;28;20030;-73
2022/03/07 04:01:45;;;;;;;15.00;13.52;;;;;;;;;;4999342;28;20036;-72
2022/03/07 04:04:12;;;;;;;15.27;13.88;;;;;;;;;;5003781;28;20117;-72
2022/03/07 04:06:40;;;;;;;14.93;13.52;;;;;;;;;;5012271;28;20067;-73
2022/03/07 04:09:18;;;;;;;15.45;13.90;;;;;;;;;;5005917;28;20450;-72
2022/03/07 04:11:44;;;;;;;15.23;13.70;;;;;;;;;;4993162;28;20093;-74
2022/03/07 04:14:10;;;;;;;15.82;14.20;;;;;;;;;;5002219;28;20462;-72
2022/03/07 04:16:38;;;;;;;16.20;14.55;;;;;;;;;;5009210;28;20041;-70
2022/03/07 04:19:04;;;;;;;14.45;13.25;;;;;;;;;;5006660;28;20034;-72
2022/03/07 04:21:30;;;;;;;16.02;14.52;;;;;;;;;;5007374;28;20064;-71
2022/03/07 04:23:56;;;;;;;15.65;13.63;;;;;;;;;;5005683;28;20069;-74
2022/03/07 04:26:22;;;;;;;15.68;13.70;;;;;;;;;;5009218;28;20397;-73
2022/03/07 04:28:48;;;;;;;16.13;14.63;;;;;;;;;;5003160;28;20545;-73
2022/03/07 04:31:14;;;;;;;18.40;15.43;;;;;;;;;;4997962;28;20042;-74
2022/03/07 04:33:40;;;;;;;15.02;13.57;;;;;;;;;;5006561;28;20034;-76
2022/03/07 04:36:05;;;;;;;15.65;14.23;;;;;;;;;;4999608;28;20493;-72
2022/03/07 04:38:32;;;;;;;15.52;14.05;;;;;;;;;;5003833;28;20034;-73
2022/03/07 04:40:58;;;;;;;15.73;14.13;;;;;;;;;;5003650;28;20420;-72
2022/03/07 04:43:23;;;;;;;18.50;14.63;;;;;;;;;;5009107;28;20030;-72
2022/03/07 04:45:52;;;;;;;15.68;14.20;;;;;;;;;;5010352;28;20037;-72
2022/03/07 04:48:19;;;;;;;15.38;13.77;;;;;;;;;;5010876;28;20225;-72
2022/03/07 04:50:45;;;;;;;17.35;15.05;;;;;;;;;;4994804;28;20072;-71
2022/03/07 04:53:10;;;;;;;16.60;14.88;;;;;;;;;;5004838;28;20193;-71
2022/03/07 04:55:36;;;;;;;16.15;14.65;;;;;;;;;;4990751;28;20552;-72
2022/03/07 04:58:02;;;;;;;16.38;14.68;;;;;;;;;;5004356;28;20033;-72
2022/03/07 05:00:29;;;;;;;16.85;15.13;;;;;;;;;;5005185;28;20096;-72
2022/03/07 05:02:54;;;;;;;15.60;14.00;;;;;;;;;;5006565;28;20049;-73
2022/03/07 05:05:20;;;;;;;15.93;14.25;;;;;;;;;;5007932;28;20258;-72
2022/03/07 05:07:49;;;;;;;16.30;14.65;;;;;;;;;;5002985;28;20038;-72
2022/03/07 05:10:16;;;;;;;;;;;;;;;;;;5000615;28;20049;-74
2022/03/07 05:12:42;;;;;;;15.35;13.85;;;;;;;;;;5006856;28;20323;-72
2022/03/07 05:15:08;;;;;;;16.75;14.98;;;;;;;;;;5014194;28;20402;-73
2022/03/07 05:17:45;;;;;;;16.13;14.40;;;;;;;;;;5005638;28;20474;-71
2022/03/07 05:20:12;;;;;;;16.30;14.70;;;;;;;;;;5003051;28;20038;-73
2022/03/07 05:22:41;;;;;;;16.70;14.75;;;;;;;;;;5005271;28;20044;-73
2022/03/07 05:25:08;;;;;;;17.65;15.63;;;;;;;;;;5004693;28;20033;-72
2022/03/07 05:27:34;;;;;;;15.57;13.98;;;;;;;;;;4997619;28;20100;-73
2022/03/07 05:30:00;;;;;;;16.08;14.10;;;;;;;;;;5000747;28;20029;-73
2022/03/07 05:32:26;;;;;;;18.88;14.40;;;;;;;;;;5002106;28;20104;-74
2022/03/07 05:34:51;;;;;;;18.65;15.07;;;;;;;;;;5000458;28;20037;-72
2022/03/07 05:37:17;;;;;;;17.77;15.63;;;;;;;;;;5002819;28;20569;-74
2022/03/07 05:39:42;;;;;;;17.65;14.98;;;;;;;;;;4995353;28;20042;-73
2022/03/07 05:42:08;;;;;;;19.13;15.27;;;;;;;;;;5006093;28;20129;-75
2022/03/07 05:44:34;;;;;;;19.55;15.00;;;;;;;;;;5003635;28;20068;-73
2022/03/07 05:46:59;;;;;;;16.17;13.85;;;;;;;;;;5004462;28;20108;-74
2022/03/07 05:49:25;;;;;;;16.63;14.93;;;;;;;;;;5004057;28;20041;-73
2022/03/07 05:51:51;;;;;;;17.92;15.98;;;;;;;;;;5010537;28;20431;-74
2022/03/07 05:54:16;;;;;;;17.40;15.32;;;;;;;;;;5008686;28;20037;-75
2022/03/07 05:56:42;;;;;;;16.58;14.80;;;;;;;;;;5008836;28;20511;-74
2022/03/07 05:59:08;;;;;;;15.25;13.70;;;;;;;;;;5008152;28;20548;-74
2022/03/07 06:01:34;;;;;;;16.20;14.50;;;;;;;;;;5006438;28;20120;-73
2022/03/07 06:04:00;;;;;;;16.33;14.68;;;;;;;;;;5006491;28;20036;-74
2022/03/07 06:06:25;;;;;;;17.55;15.80;;;;;;;;;;5010344;28;20034;-72
2022/03/07 06:08:51;;;;;;;17.20;15.20;;;;;;;;;;5004290;28;20113;-74
2022/03/07 06:11:17;;;;;;;15.70;14.10;;;;;;;;;;4989397;28;20046;-73
2022/03/07 06:13:43;;;;;;;15.95;14.23;;;;;;;;;;5006931;28;20477;-74
2022/03/07 06:16:09;;;;;;;16.35;13.57;;;;;;;;;;5008263;28;20041;-74
2022/03/07 06:18:34;;;;;;;18.45;14.82;;;;;;;;;;5011912;28;20045;-72
2022/03/07 06:21:00;;;;;;;16.70;14.98;;;;;;;;;;5006289;28;20040;-72
2022/03/07 06:23:26;;;;;;;23.77;16.08;;;;;;;;;;4999641;28;20478;-73
2022/03/07 06:25:51;;;;;;;16.30;14.27;;;;;;;;;;4988829;28;20038;-72
2022/03/07 06:28:17;;;;;;;21.33;16.25;;;;;;;;;;4989217;28;20101;-72
2022/03/07 06:30:49;;;;;;;18.23;16.38;;;;;;;;;;5006633;28;20406;-72
2022/03/07 06:33:15;;;;;;;20.25;15.90;;;;;;;;;;5007659;28;20041;-72
2022/03/07 06:35:41;;;;;;;17.25;14.00;;;;;;;;;;5006982;28;20062;-72
2022/03/07 06:38:07;;;;;;;15.65;14.15;;;;;;;;;;5006853;28;20038;-72
2022/03/07 06:40:33;;;;;;;39.88;21.70;;;;;;;;;;5007646;28;20095;-72
2022/03/07 06:43:00;;;;;;;16.15;14.43;;;;;;;;;;5000853;28;20033;-72
2022/03/07 06:45:28;;;;;;;18.05;16.15;;;;;;;;;;4988565;28;20433;-74
2022/03/07 06:47:53;;;;;;;14.15;12.88;;;;;;;;;;4989088;28;20081;-73
2022/03/07 06:50:19;;;;;;;18.48;16.60;;;;;;;;;;5007353;28;20125;-73
2022/03/07 06:52:45;;;;;;;18.90;16.15;;;;;;;;;;5007748;28;20042;-74
2022/03/07 06:55:11;;;;;;;17.38;15.60;;;;;;;;;;4995458;28;20354;-71
2022/03/07 06:57:37;;;;;;;19.25;15.38;;;;;;;;;;5011431;28;20041;-73
2022/03/07 07:00:11;;;;;;;17.05;15.32;;;;;;;;;;5011446;28;20042;-74
2022/03/07 07:02:37;;;;;;;16.40;14.80;;;;;;;;;;4992022;28;20042;-72
2022/03/07 07:05:03;;;;;;;16.70;15.00;;;;;;;;;;5005261;28;20038;-72
2022/03/07 07:07:30;;;;;;;16.90;15.07;;;;;;;;;;5011175;28;20048;-72
2022/03/07 07:09:57;;;;;;;17.00;14.85;;;;;;;;;;5013212;28;20037;-73
2022/03/07 07:12:22;;;;;;;17.35;15.55;;;;;;;;;;5009625;28;20038;-73
2022/03/07 07:14:48;;;;;;;16.33;14.65;;;;;;;;;;5011211;28;20045;-72
2022/03/07 07:17:14;;;;;;;18.38;15.45;;;;;;;;;;5011171;28;20034;-72
2022/03/07 07:19:41;;;;;;;15.45;13.85;;;;;;;;;;5016483;28;20041;-72
2022/03/07 07:22:06;;;;;;;16.65;14.95;;;;;;;;;;5009438;28;20100;-72
2022/03/07 07:24:32;;;;;;;16.10;14.50;;;;;;;;;;5010878;28;20473;-73
2022/03/07 07:26:58;;;;;;;14.60;13.27;;;;;;;;;;5010130;28;20042;-73
2022/03/07 07:29:23;;;;;;;16.95;14.82;;;;;;;;;;5010065;28;20453;-74
2022/03/07 07:31:51;;;;;;;18.63;15.75;;;;;;;;;;5010339;28;20041;-72
2022/03/07 07:34:18;;;;;;;15.95;14.27;;;;;;;;;;5010567;28;20069;-74
2022/03/07 07:36:44;;;;;;;17.52;15.73;;;;;;;;;;5010304;28;20034;-74
2022/03/07 07:39:10;;;;;;;16.35;14.65;;;;;;;;;;5007277;28;20049;-74
2022/03/07 07:41:36;;;;;;;16.70;15.00;;;;;;;;;;5010466;28;20045;-73
2022/03/07 07:44:02;;;;;;;16.65;15.05;;;;;;;;;;5010442;28;20046;-73
2022/03/07 07:46:27;;;;;;;16.73;14.68;;;;;;;;;;5008455;28;20409;-73
2022/03/07 07:48:53;;;;;;;18.30;15.75;;;;;;;;;;5028455;28;20040;-72
2022/03/07 07:51:19;;;;;;;17.08;15.40;;;;;;;;;;5034146;28;20612;-76
2022/03/07 07:53:44;;;;;;;17.92;16.27;;;;;;;;;;4999029;28;20125;-73
2022/03/07 07:56:10;;;;;;;18.38;16.48;;;;;;;;;;4990890;28;20038;-73
2022/03/07 07:58:36;;;;;;;19.98;18.05;;;;;;;;;;5008435;28;20034;-71
2022/03/07 08:01:03;;;;;;;18.58;16.42;;;;;;;;;;5010098;28;20045;-72
2022/03/07 08:03:29;;;;;;;17.70;16.10;;;;;;;;;;5010353;28;20045;-73
2022/03/07 08:05:55;;;;;;;17.63;15.88;;;;;;;;;;5012525;28;20190;-72
2022/03/07 08:08:21;;;;;;;21.35;16.38;;;;;;;;;;5010224;28;20037;-74
2022/03/07 08:10:46;;;;;;;17.35;15.77;;;;;;;;;;5010097;28;20034;-74
2022/03/07 08:13:12;;;;;;;18.60;16.90;;;;;;;;;;4997539;28;20042;-75
2022/03/07 08:15:40;;;;;;;18.65;17.00;;;;;;;;;;4965879;28;20050;-75
2022/03/07 08:18:06;;;;;;;18.65;16.75;;;;;;;;;;5011165;28;20346;-76
2022/03/07 08:20:32;;;;;;;18.60;16.88;;;;;;;;;;5008690;28;20088;-76
2022/03/07 08:22:58;;;;;;;19.30;17.40;;;;;;;;;;5020043;28;20029;-77
2022/03/07 08:25:23;;;;;;;18.48;16.65;;;;;;;;;;5008633;28;20382;-74
2022/03/07 08:27:49;;;;;;;17.70;16.13;;;;;;;;;;5009713;28;20030;-74
2022/03/07 08:30:18;;;;;;;19.42;17.52;;;;;;;;;;5009322;28;20038;-76
2022/03/07 08:32:43;;;;;;;17.63;16.10;;;;;;;;;;5009171;28;20038;-76
2022/03/07 08:35:10;;;;;;;17.52;16.13;;;;;;;;;;5011590;28;20164;-75
2022/03/07 08:37:37;;;;;;;18.27;16.58;;;;;;;;;;5009761;28;20040;-73
2022/03/07 08:40:05;;;;;;;17.73;15.52;;;;;;;;;;5010408;28;20065;-75
2022/03/07 08:42:30;;;;;;;16.90;15.13;;;;;;;;;;5008128;28;20077;-74
2022/03/07 08:44:56;;;;;;;18.20;16.45;;;;;;;;;;5010859;28;20225;-73
2022/03/07 08:47:21;;;;;;;18.70;16.88;;;;;;;;;;5009101;28;20030;-74
2022/03/07 08:49:47;;;;;;;17.13;15.65;;;;;;;;;;5007056;28;20037;-76
2022/03/07 08:52:15;;;;;;;17.80;16.20;;;;;;;;;;4995004;28;20073;-77
2022/03/07 08:54:45;;;;;;;17.83;16.25;;;;;;;;;;4988621;28;20379;-74
2022/03/07 08:57:11;;;;;;;17.08;15.55;;;;;;;;;;4979932;28;20046;-76
2022/03/07 08:59:37;;;;;;;17.77;16.13;;;;;;;;;;5007709;28;20044;-76
2022/03/07 09:02:03;;;;;;;16.60;15.20;;;;;;;;;;5007371;28;20038;-75
2022/03/07 09:04:29;;;;;;;17.70;16.20;;;;;;;;;;5007702;28;20409;-74
2022/03/07 09:06:55;;;;;;;17.58;15.98;;;;;;;;;;5006078;28;20042;-75
2022/03/07 09:09:21;;;;;;;19.33;16.90;;;;;;;;;;5013922;28;20037;-74
2022/03/07 09:11:47;;;;;;;17.80;15.95;;;;;;;;;;5000827;28;20064;-75
2022/03/07 09:14:13;;;;;;;18.58;16.83;;;;;;;;;;5009126;28;20038;-73
2022/03/07 09:16:39;;;;;;;17.95;16.27;;;;;;;;;;5007030;28;20401;-74
2022/03/07 09:19:04;;;;;;;17.58;15.85;;;;;;;;;;5010214;28;20486;-75
2022/03/07 09:21:30;;;;;;;17.75;16.13;;;;;;;;;;5006353;28;20042;-75
2022/03/07 09:23:56;;;;;;;18.00;16.40;;;;;;;;;;5006065;28;20030;-73
2022/03/07 09:26:21;;;;;;;17.52;15.75;;;;;;;;;;5006979;28;20038;-73
2022/03/07 09:28:47;;;;;;;18.00;16.40;;;;;;;;;;4994843;28;20034;-73
2022/03/07 09:31:13;;;;;;;18.83;17.10;;;;;;;;;;4987919;28;20042;-74
2022/03/07 09:33:39;;;;;;;19.48;17.77;;;;;;;;;;5008248;28;20690;-74
2022/03/07 09:36:05;;;;;;;17.40;15.85;;;;;;;;;;4996091;28;20041;-74
2022/03/07 09:38:31;;;;;;;18.58;16.98;;;;;;;;;;4987607;28;20218;-74
2022/03/07 09:40:58;;;;;;;18.40;16.80;;;;;;;;;;4992776;28;20485;-74
2022/03/07 09:43:23;;;;;;;17.88;16.38;;;;;;;;;;5006447;28;20037;-74
2022/03/07 09:45:49;;;;;;;19.20;16.52;;;;;;;;;;5006427;28;20273;-76
2022/03/07 09:48:16;;;;;;;19.42;17.63;;;;;;;;;;5006676;28;20099;-76
2022/03/07 09:50:45;;;;;;;19.25;17.40;;;;;;;;;;5010975;28;20033;-73
2022/03/07 09:53:13;;;;;;;18.08;16.50;;;;;;;;;;5008146;28;20034;-73
2022/03/07 09:55:39;;;;;;;18.25;16.65;;;;;;;;;;5009257;28;20414;-75
2022/03/07 09:58:06;;;;;;;17.65;16.15;;;;;;;;;;5004369;28;20049;-75
2022/03/07 10:00:32;;;;;;;19.52;17.55;;;;;;;;;;5003952;28;20041;-75
2022/03/07 10:03:05;;;;;;;17.83;16.23;;;;;;;;;;4987813;28;20033;-75
2022/03/07 10:05:53;;;;;;;18.73;17.02;;;;;;;;;;5005327;28;20042;-73
2022/03/07 10:08:29;;;;;;;17.50;16.00;;;;;;;;;;5006718;28;20042;-74
2022/03/07 10:10:56;;;;;;;21.08;18.02;;;;;;;;;;5006245;28;20033;-75
2022/03/07 10:13:23;;;;;;;18.15;16.38;;;;;;;;;;5006459;28;20045;-74
2022/03/07 10:15:57;;;;;;;17.63;16.13;;;;;;;;;;5006198;28;20042;-74
2022/03/07 10:18:24;;;;;;;19.38;17.58;;;;;;;;;;5008419;28;20049;-75
2022/03/07 10:21:01;;;;;;;17.98;16.38;;;;;;;;;;5008858;28;20037;-74
2022/03/07 10:23:27;;;;;;;18.73;17.13;;;;;;;;;;5007615;28;20117;-73
2022/03/07 10:26:07;;;;;;;19.40;17.55;;;;;;;;;;5005900;28;20072;-74
2022/03/07 10:28:37;;;;;;;19.08;17.17;;;;;;;;;;5003939;28;20038;-74
2022/03/07 10:31:17;;;;;;;18.00;16.38;;;;;;;;;;5007907;28;20136;-74
2022/03/07 10:33:44;;;;;;;18.52;16.83;;;;;;;;;;4997398;28;20114;-73
2022/03/07 10:36:10;;;;;;;18.90;17.05;;;;;;;;;;5003952;28;20037;-73
2022/03/07 10:38:35;;;;;;;18.02;16.30;;;;;;;;;;5010093;28;20577;-75
2022/03/07 10:41:01;;;;;;;18.75;17.05;;;;;;;;;;5010100;28;20253;-75
2022/03/07 10:43:28;;;;;;;18.42;16.73;;;;;;;;;;5010048;28;20397;-75
2022/03/07 10:45:59;;;;;;;17.77;16.17;;;;;;;;;;5005096;28;20037;-73
2022/03/07 10:48:28;;;;;;;18.02;16.40;;;;;;;;;;5010238;28;20038;-73
2022/03/07 10:50:56;;;;;;;20.30;18.42;;;;;;;;;;5008792;28;20034;-74
2022/03/07 10:53:22;;;;;;;19.08;17.27;;;;;;;;;;5009108;28;20037;-74
2022/03/07 10:55:59;;;;;;;19.08;17.33;;;;;;;;;;5009162;28;20109;-74
2022/03/07 10:58:27;;;;;;;18.95;17.23;;;;;;;;;;4999585;28;20030;-76
2022/03/07 11:00:57;;;;;;;18.55;16.77;;;;;;;;;;5003908;28;20048;-75
2022/03/07 11:03:28;;;;;;;18.05;16.40;;;;;;;;;;5009944;28;20041;-73
2022/03/07 11:05:54;;;;;;;17.63;16.02;;;;;;;;;;5009512;28;20034;-74
2022/03/07 11:08:20;;;;;;;18.35;16.52;;;;;;;;;;5009800;28;20045;-75
2022/03/07 11:10:49;;;;;;;17.75;15.95;;;;;;;;;;5003515;28;20125;-73
2022/03/07 11:13:16;;;;;;;19.77;17.17;;;;;;;;;;5009203;28;20045;-73
2022/03/07 11:15:43;;;;;;;19.60;17.60;;;;;;;;;;5008956;28;20052;-75
2022/03/07 11:18:11;;;;;;;17.65;16.05;;;;;;;;;;5004531;28;20356;-75
2022/03/07 11:20:40;;;;;;;19.13;17.20;;;;;;;;;;5008711;28;20065;-75
2022/03/07 11:23:06;;;;;;;35.22;24.80;;;;;;;;;;5008962;28;20038;-74
2022/03/07 11:25:33;;;;;;;20.15;18.17;;;;;;;;;;5008572;28;20045;-73
2022/03/07 11:27:58;;;;;;;17.85;16.15;;;;;;;;;;5011483;28;20033;-75
2022/03/07 11:30:25;;;;;;;18.77;16.98;;;;;;;;;;5010447;28;20115;-74
2022/03/07 11:32:52;;;;;;;18.63;17.00;;;;;;;;;;4997566;28;20042;-75
2022/03/07 11:35:18;;;;;;;19.77;17.77;;;;;;;;;;4989772;28;20084;-74
2022/03/07 11:37:44;;;;;;;19.42;17.70;;;;;;;;;;5009568;28;20033;-74
2022/03/07 11:40:19;;;;;;;17.05;15.57;;;;;;;;;;5009047;28;20049;-75
2022/03/07 11:42:45;;;;;;;18.40;16.60;;;;;;;;;;4995677;28;20066;-76
2022/03/07 11:45:18;;;;;;;18.52;16.63;;;;;;;;;;5003184;28;20281;-73
2022/03/07 11:47:45;;;;;;;19.65;17.85;;;;;;;;;;5011947;28;20168;-74
2022/03/07 11:50:11;;;;;;;20.77;18.63;;;;;;;;;;5014149;28;20037;-74
2022/03/07 11:52:37;;;;;;;19.95;18.15;;;;;;;;;;5007816;28;20385;-74
2022/03/07 11:55:10;;;;;;;17.40;15.80;;;;;;;;;;4984541;28;20030;-74
2022/03/07 11:57:41;;;;;;;18.52;16.85;;;;;;;;;;5003031;28;20072;-74
2022/03/07 12:00:24;;;;;;;18.45;16.70;;;;;;;;;;5008700;28;20077;-74
2022/03/07 12:02:52;;;;;;;17.60;16.15;;;;;;;;;;5010583;28;20431;-74
2022/03/07 12:05:21;;;;;;;20.27;18.50;;;;;;;;;;5007263;28;20113;-74
2022/03/07 12:07:47;;;;;;;17.90;16.25;;;;;;;;;;5008302;28;20936;-74
2022/03/07 12:10:13;;;;;;;17.92;16.00;;;;;;;;;;5005340;28;20053;-75
2022/03/07 12:12:39;;;;;;;18.23;16.52;;;;;;;;;;4993827;28;20034;-73
2022/03/07 12:15:13;;;;;;;17.92;16.13;;;;;;;;;;5007987;28;20111;-75
2022/03/07 12:17:39;;;;;;;18.85;17.25;;;;;;;;;;5007890;28;20065;-74
2022/03/07 12:20:06;;;;;;;19.02;17.23;;;;;;;;;;5007678;28;20461;-75
2022/03/07 12:22:34;;;;;;;18.50;16.90;;;;;;;;;;5011408;28;20121;-74
2022/03/07 12:25:01;;;;;;;18.58;16.67;;;;;;;;;;5011482;28;20042;-74
2022/03/07 12:27:27;;;;;;;17.77;16.38;;;;;;;;;;5006831;28;20073;-76
2022/03/07 12:29:53;;;;;;;18.00;16.50;;;;;;;;;;4997009;28;20076;-73
2022/03/07 12:32:19;;;;;;;17.60;16.20;;;;;;;;;;5017137;28;20041;-75
2022/03/07 12:34:46;;;;;;;18.80;17.10;;;;;;;;;;4996835;28;20513;-74
2022/03/07 12:37:20;;;;;;;19.38;17.67;;;;;;;;;;5005545;28;20116;-74
2022/03/07 12:39:58;;;;;;;18.58;16.98;;;;;;;;;;4987323;28;20042;-75
2022/03/07 12:42:32;;;;;;;18.52;16.98;;;;;;;;;;4994250;28;20493;-75
2022/03/07 12:45:00;;;;;;;18.60;17.00;;;;;;;;;;5007858;28;20072;-73
2022/03/07 12:47:35;;;;;;;19.30;17.27;;;;;;;;;;5007055;28;20048;-73
2022/03/07 12:50:02;;;;;;;18.10;16.60;;;;;;;;;;5026721;28;20044;-76
2022/03/07 12:52:30;;;;;;;17.00;15.60;;;;;;;;;;4996410;28;20038;-72
2022/03/07 12:54:58;;;;;;;18.20;16.50;;;;;;;;;;5009647;28;20029;-73
2022/03/07 12:57:26;;;;;;;18.02;16.38;;;;;;;;;;5009496;28;20408;-76
2022/03/07 13:00:00;;;;;;;17.85;16.20;;;;;;;;;;4991572;28;20402;-74
2022/03/07 13:02:36;;;;;;;19.15;17.27;;;;;;;;;;5003215;28;20169;-73
2022/03/07 13:05:05;;;;;;;17.15;15.50;;;;;;;;;;5010661;28;20045;-75
2022/03/07 13:07:30;;;;;;;19.25;17.35;;;;;;;;;;5009812;28;20168;-74
2022/03/07 13:09:56;;;;;;;17.83;16.23;;;;;;;;;;5009087;28;20500;-75
2022/03/07 13:12:21;;;;;;;18.90;17.27;;;;;;;;;;4996404;28;20034;-75
2022/03/07 13:14:47;;;;;;;18.35;16.70;;;;;;;;;;5009082;28;20033;-75
2022/03/07 13:17:19;;;;;;;17.70;16.17;;;;;;;;;;5003578;28;20034;-74
2022/03/07 13:19:47;;;;;;;17.40;15.90;;;;;;;;;;5008733;28;20030;-75
2022/03/07 13:22:13;;;;;;;17.85;16.35;;;;;;;;;;5009994;28;20044;-76
2022/03/07 13:24:39;;;;;;;19.58;16.30;;;;;;;;;;5008936;28;20477;-76
2022/03/07 13:27:13;;;;;;;17.58;15.90;;;;;;;;;;5009045;28;20052;-75
2022/03/07 13:29:43;;;;;;;18.08;16.50;;;;;;;;;;5005742;28;20034;-74
2022/03/07 13:32:12;;;;;;;17.65;16.05;;;;;;;;;;5008904;28;20040;-74
2022/03/07 13:34:51;;;;;;;17.85;16.15;;;;;;;;;;5001705;28;20041;-74
2022/03/07 13:37:20;;;;;;;17.98;16.38;;;;;;;;;;5019644;28;20072;-74
2022/03/07 13:39:58;;;;;;;17.67;16.05;;;;;;;;;;5006596;28;20046;-74
2022/03/07 13:42:23;;;;;;;18.65;17.05;;;;;;;;;;5005327;28;20460;-75
2022/03/07 13:44:55;;;;;;;17.95;16.45;;;;;;;;;;4992246;28;20096;-74
2022/03/07 13:47:26;;;;;;;17.88;16.08;;;;;;;;;;5011768;28;20041;-75
2022/03/07 13:49:53;;;;;;;17.52;16.02;;;;;;;;;;5015527;28;20073;-76
2022/03/07 13:52:22;;;;;;;18.30;16.60;;;;;;;;;;5007120;28;20045;-76
2022/03/07 13:54:50;;;;;;;17.90;16.30;;;;;;;;;;5006901;28;20543;-76
2022/03/07 13:57:17;;;;;;;18.15;16.55;;;;;;;;;;5010854;28;20104;-75
2022/03/07 14:00:01;;;;;;;17.58;16.02;;;;;;;;;;5004097;28;20037;-76
2022/03/07 14:02:30;;;;;;;18.10;16.42;;;;;;;;;;5004066;28;20502;-76
2022/03/07 14:05:00;;;;;;;17.05;15.65;;;;;;;;;;5010102;28;20025;-73
2022/03/07 14:07:28;;;;;;;18.27;16.58;;;;;;;;;;5002399;28;20241;-74
2022/03/07 14:09:59;;;;;;;18.38;16.70;;;;;;;;;;5006365;28;20575;-72
2022/03/07 14:12:33;;;;;;;17.75;16.25;;;;;;;;;;5006423;28;20107;-74
2022/03/07 14:15:11;;;;;;;17.02;15.48;;;;;;;;;;5005237;28;20049;-72
2022/03/07 14:17:38;;;;;;;16.77;15.18;;;;;;;;;;5006543;28;20034;-76
2022/03/07 14:20:07;;;;;;;17.63;16.23;;;;;;;;;;5012252;28;20038;-72